Time;durP1;ratioP1;P1;durP2;ratioP2;P2;SDS_P1;SDS_P2;PMS_P1;PMS_P2;Temp;Humidity;BMP_temperature;BMP_pressure;BME280_temperature;BME280_humidity;BME280_pressure;Samples;Min_cycle;Max_cycle;Signal;HPM_P1;HPM_P2
2023/10/12 00:00:41;;;;;;;0.57;0.55;;;19.60;99.90;;;;;;4390567;32;20066;-60
2023/10/12 00:03:07;;;;;;;0.65;0.30;;;19.60;99.90;;;;;;4391304;32;20070;-60
2023/10/12 00:05:34;;;;;;;0.75;0.60;;;19.70;99.90;;;;;;4402672;32;20131;-61
2023/10/12 00:08:07;;;;;;;3.35;1.73;;;19.80;99.90;;;;;;4387875;32;20086;-62
2023/10/12 00:10:41;;;;;;;1.37;1.25;;;19.80;99.90;;;;;;4388851;32;20109;-62
2023/10/12 00:13:11;;;;;;;0.40;0.40;;;19.90;99.90;;;;;;4389047;32;20057;-61
2023/10/12 00:15:46;;;;;;;1.20;0.82;;;19.90;99.90;;;;;;4379661;32;20144;-61
2023/10/12 00:18:14;;;;;;;0.30;0.30;;;20.00;99.90;;;;;;4398481;32;20065;-62
2023/10/12 00:20:40;;;;;;;0.62;0.62;;;20.00;99.90;;;;;;4388911;32;20568;-61
2023/10/12 00:23:10;;;;;;;22.10;3.08;;;20.10;99.90;;;;;;4404078;32;20730;-61
2023/10/12 00:25:45;;;;;;;0.85;0.60;;;20.20;99.90;;;;;;4391290;32;20544;-61
2023/10/12 00:28:14;;;;;;;0.73;0.73;;;20.20;99.90;;;;;;4403234;32;20113;-61
2023/10/12 00:30:41;;;;;;;1.75;1.17;;;20.20;99.90;;;;;;4404094;32;20184;-63
2023/10/12 00:33:08;;;;;;;0.55;0.55;;;20.10;99.90;;;;;;4403066;32;20097;-61
2023/10/12 00:35:37;;;;;;;14.60;0.73;;;20.00;99.90;;;;;;4390407;32;20304;-60
2023/10/12 00:38:15;;;;;;;2.45;0.98;;;20.00;99.90;;;;;;4397747;32;20419;-62
2023/10/12 00:40:55;;;;;;;3.35;1.35;;;19.90;99.90;;;;;;4389437;32;20085;-63
2023/10/12 00:43:21;;;;;;;0.45;0.45;;;19.90;99.90;;;;;;4403794;32;20152;-61
2023/10/12 00:45:47;;;;;;;3.22;1.73;;;19.90;99.90;;;;;;4400819;32;20423;-61
2023/10/12 00:48:19;;;;;;;4.07;1.75;;;19.90;99.90;;;;;;4400364;32;20093;-60
2023/10/12 00:50:45;;;;;;;0.43;0.43;;;19.90;99.90;;;;;;4402025;32;20581;-62
2023/10/12 00:53:22;;;;;;;0.30;0.30;;;19.80;99.90;;;;;;4387753;32;20078;-62
2023/10/12 00:55:48;;;;;;;0.90;0.85;;;19.90;99.90;;;;;;4401462;32;20078;-62
2023/10/12 00:58:15;;;;;;;0.50;0.50;;;19.90;99.90;;;;;;4396871;32;20074;-61
2023/10/12 01:01:01;;;;;;;5.45;1.73;;;20.00;99.90;;;;;;4398912;32;20062;-63
2023/10/12 01:03:45;;;;;;;6.43;1.58;;;20.00;99.90;;;;;;4376368;32;20089;-62
2023/10/12 01:08:42;;;;;;;0.40;0.40;;;20.00;99.90;;;;;;4398637;32;20592;-62
2023/10/12 01:11:09;;;;;;;;;;;20.00;99.90;;;;;;4401222;32;20121;-62
2023/10/12 01:13:35;;;;;;;0.62;0.52;;;20.00;99.90;;;;;;4384890;32;20011;-61
2023/10/12 01:16:08;;;;;;;1.25;0.68;;;20.00;99.90;;;;;;4399728;32;20088;-62
2023/10/12 01:18:34;;;;;;;1.30;0.57;;;20.00;99.90;;;;;;4395426;32;20074;-62
2023/10/12 01:21:03;;;;;;;1.08;0.82;;;20.10;99.90;;;;;;4400171;32;20081;-62
2023/10/12 01:23:28;;;;;;;1.25;0.95;;;20.00;99.90;;;;;;4384887;32;20151;-62
2023/10/12 01:26:03;;;;;;;0.40;0.40;;;20.00;99.90;;;;;;4400564;32;20581;-61
2023/10/12 01:28:29;;;;;;;0.62;0.62;;;19.90;99.90;;;;;;4397406;32;20070;-62
2023/10/12 01:30:54;;;;;;;1.00;0.40;;;19.90;99.90;;;;;;4400641;32;20128;-62
2023/10/12 01:33:20;;;;;;;0.68;0.68;;;19.90;99.90;;;;;;4400504;32;20240;-62
2023/10/12 01:35:50;;;;;;;1.60;1.30;;;19.90;99.90;;;;;;4386802;32;20080;-61
2023/10/12 01:38:16;;;;;;;0.95;0.93;;;19.90;99.90;;;;;;4394227;32;20089;-60
2023/10/12 01:43:17;;;;;;;0.40;0.40;;;19.70;99.90;;;;;;4396148;32;20457;-60
2023/10/12 01:45:43;;;;;;;0.43;0.43;;;19.60;99.90;;;;;;4400457;32;20136;-63
2023/10/12 01:48:22;;;;;;;0.62;0.62;;;19.60;99.90;;;;;;4401352;32;20101;-62
2023/10/12 01:50:49;;;;;;;2.53;0.73;;;19.50;99.90;;;;;;4387075;32;20113;-61
2023/10/12 01:53:26;;;;;;;0.70;0.70;;;19.60;99.90;;;;;;4401109;32;20065;-61
2023/10/12 01:55:52;;;;;;;0.70;0.70;;;19.60;99.90;;;;;;4402043;32;20134;-61
2023/10/12 01:58:20;;;;;;;0.75;0.75;;;19.60;99.90;;;;;;4383104;32;20050;-62
2023/10/12 02:00:53;;;;;;;4.82;1.73;;;19.60;99.90;;;;;;4403655;32;20069;-62
2023/10/12 02:03:26;;;;;;;0.60;0.60;;;19.60;99.90;;;;;;4399813;32;20549;-61
2023/10/12 02:06:02;;;;;;;0.45;0.45;;;19.60;99.90;;;;;;4388204;32;20079;-62
2023/10/12 02:08:32;;;;;;;0.95;0.93;;;19.50;99.90;;;;;;4398592;32;20508;-62
2023/10/12 02:11:06;;;;;;;0.70;0.70;;;19.50;99.90;;;;;;4388864;32;20054;-62
2023/10/12 02:13:35;;;;;;;0.57;0.52;;;19.50;99.90;;;;;;4384149;32;20471;-62
2023/10/12 02:16:02;;;;;;;0.88;0.55;;;19.50;99.90;;;;;;4383710;32;20066;-62
2023/10/12 02:18:30;;;;;;;0.50;0.50;;;19.50;99.90;;;;;;4379817;32;20165;-61
2023/10/12 02:21:07;;;;;;;1.10;1.02;;;19.50;99.90;;;;;;4386360;32;20140;-63
2023/10/12 02:23:38;;;;;;;1.35;1.12;;;19.40;99.90;;;;;;4386426;32;20090;-63
2023/10/12 02:26:28;;;;;;;2.10;1.20;;;19.40;99.90;;;;;;4384533;32;20148;-62
2023/10/12 02:28:53;;;;;;;0.55;0.55;;;19.40;99.90;;;;;;4378358;32;20604;-63
2023/10/12 02:31:20;;;;;;;0.30;0.30;;;19.30;99.90;;;;;;4400893;32;20294;-63
2023/10/12 02:33:45;;;;;;;0.50;0.50;;;19.30;99.90;;;;;;4400122;32;20085;-62
2023/10/12 02:36:12;;;;;;;2.25;1.12;;;19.30;99.90;;;;;;4402485;32;20054;-62
2023/10/12 02:38:41;;;;;;;0.52;0.52;;;19.30;99.90;;;;;;4397600;32;20077;-63
2023/10/12 02:41:12;;;;;;;0.40;0.40;;;19.30;99.90;;;;;;4388396;32;20133;-62
2023/10/12 02:43:40;;;;;;;3.65;1.62;;;19.20;99.90;;;;;;4385661;32;20288;-62
2023/10/12 02:46:12;;;;;;;0.73;0.68;;;19.20;99.90;;;;;;4401144;32;20054;-63
2023/10/12 02:48:38;;;;;;;1.45;1.05;;;19.10;99.90;;;;;;4397640;32;20078;-63
2023/10/12 02:51:06;;;;;;;0.80;0.77;;;19.10;99.90;;;;;;4400966;32;20057;-63
2023/10/12 02:53:34;;;;;;;1.12;1.05;;;19.10;99.90;;;;;;4399191;32;20097;-63
2023/10/12 02:56:01;;;;;;;0.77;0.77;;;19.10;99.90;;;;;;4385297;32;20529;-61
2023/10/12 02:58:27;;;;;;;0.93;0.85;;;19.10;99.90;;;;;;4370905;32;20070;-62
2023/10/12 03:00:56;;;;;;;1.02;0.95;;;19.10;99.90;;;;;;4384500;32;20094;-62
2023/10/12 03:03:25;;;;;;;0.50;0.50;;;19.10;99.90;;;;;;4384658;32;20077;-62
2023/10/12 03:05:52;;;;;;;4.40;0.62;;;19.10;99.90;;;;;;4388032;32;20440;-62
2023/10/12 03:08:20;;;;;;;0.60;0.60;;;19.10;99.90;;;;;;4383531;32;20089;-61
2023/10/12 03:11:03;;;;;;;0.47;0.47;;;19.00;99.90;;;;;;4400251;32;20164;-63
2023/10/12 03:13:35;;;;;;;5.75;1.65;;;18.90;99.90;;;;;;4397275;32;20144;-62
2023/10/12 03:16:15;;;;;;;2.55;0.60;;;18.90;99.90;;;;;;4371661;32;20317;-62
2023/10/12 03:18:44;;;;;;;5.60;0.93;;;18.80;99.90;;;;;;4384214;32;20077;-62
2023/10/12 03:21:12;;;;;;;0.55;0.50;;;18.70;99.90;;;;;;4373978;32;20541;-63
2023/10/12 03:23:40;;;;;;;0.98;0.60;;;18.60;99.90;;;;;;4386896;32;20089;-62
2023/10/12 03:26:24;;;;;;;0.40;0.40;;;18.50;99.90;;;;;;4399255;32;21314;-63
2023/10/12 03:34:35;;;;;;;2.55;0.75;;;18.20;99.90;;;;;;4384153;32;20081;-61
2023/10/12 03:37:03;;;;;;;0.37;0.37;;;18.10;99.90;;;;;;4377951;32;20191;-61
2023/10/12 03:39:31;;;;;;;6.80;1.42;;;18.00;99.90;;;;;;4374710;32;20061;-64
2023/10/12 03:42:39;;;;;;;0.82;0.82;;;17.90;99.90;;;;;;4398720;32;20082;-60
2023/10/12 03:47:31;;;;;;;0.73;0.70;;;17.80;99.90;;;;;;4396641;32;20086;-60
2023/10/12 03:49:58;;;;;;;5.40;2.25;;;17.70;99.90;;;;;;4400279;32;20133;-64
2023/10/12 03:52:34;;;;;;;0.68;0.68;;;17.70;99.90;;;;;;4398628;32;20113;-62
2023/10/12 03:57:45;;;;;;;8.65;1.70;;;17.50;99.90;;;;;;4379493;32;20082;-62
2023/10/12 04:02:58;;;;;;;1.33;0.80;;;17.30;99.90;;;;;;4403006;32;20077;-61
2023/10/12 04:05:54;;;;;;;2.17;0.93;;;17.30;99.90;;;;;;4390243;32;20113;-62
2023/10/12 04:11:52;;;;;;;1.02;0.88;;;17.20;99.90;;;;;;4397054;32;20458;-61
2023/10/12 04:18:33;;;;;;;0.20;0.20;;;16.90;99.90;;;;;;4384325;32;20429;-63
2023/10/12 04:20:59;;;;;;;2.95;1.02;;;16.80;99.90;;;;;;4381953;32;20129;-62
2023/10/12 04:28:59;;;;;;;0.73;0.73;;;16.70;99.90;;;;;;4397977;32;20617;-62
2023/10/12 04:32:09;;;;;;;0.65;0.65;;;16.60;99.90;;;;;;4402317;32;20058;-62
2023/10/12 04:34:12;;;;;;;0.37;0.37;;;16.50;99.90;;;;;;4386346;32;20125;-61
2023/10/12 04:41:42;;;;;;;13.65;1.85;;;16.30;99.90;;;;;;4388343;32;20427;-60
2023/10/12 04:47:07;;;;;;;0.70;0.70;;;16.20;99.90;;;;;;4385983;32;20126;-63
2023/10/12 04:52:15;;;;;;;0.88;0.88;;;16.20;99.90;;;;;;4387735;32;20069;-58
2023/10/12 04:55:06;;;;;;;2.90;1.62;;;16.30;99.90;;;;;;4386956;32;20077;-59
2023/10/12 04:57:32;;;;;;;0.60;0.60;;;16.30;99.90;;;;;;4387052;32;20436;-61
2023/10/12 05:02:30;;;;;;;2.17;1.50;;;16.30;99.90;;;;;;4396770;32;20054;-59
2023/10/12 05:09:50;;;;;;;0.68;0.68;;;16.10;99.90;;;;;;4386142;32;20497;-59
2023/10/12 05:12:17;;;;;;;0.95;0.60;;;16.10;99.90;;;;;;4397614;32;20113;-60
2023/10/12 05:14:43;;;;;;;1.40;0.93;;;16.00;99.90;;;;;;4401291;32;20058;-60
2023/10/12 05:17:09;;;;;;;0.70;0.70;;;16.00;99.90;;;;;;4385162;32;20106;-61
2023/10/12 05:19:35;;;;;;;6.70;2.25;;;16.00;99.90;;;;;;4380158;32;20304;-60
2023/10/12 05:22:01;;;;;;;1.37;0.77;;;16.10;99.90;;;;;;4400031;32;20078;-60
2023/10/12 05:24:26;;;;;;;2.40;1.23;;;16.10;99.90;;;;;;4402328;32;20086;-60
2023/10/12 05:26:58;;;;;;;0.68;0.68;;;16.10;99.90;;;;;;4383239;32;20136;-60
2023/10/12 05:32:06;;;;;;;2.45;1.05;;;16.00;99.90;;;;;;4375529;32;20074;-60
2023/10/12 05:38:08;;;;;;;1.10;0.77;;;16.10;99.90;;;;;;4385559;32;20089;-62
2023/10/12 05:39:55;;;;;;;1.67;1.23;;;16.10;99.90;;;;;;4369445;32;20121;-61
2023/10/12 05:42:22;;;;;;;2.15;1.27;;;16.10;99.90;;;;;;4393865;32;20530;-61
2023/10/12 05:44:49;;;;;;;0.50;0.50;;;16.10;99.90;;;;;;4368237;32;20605;-62
2023/10/12 05:47:17;;;;;;;3.25;2.03;;;16.00;99.90;;;;;;4367493;32;20200;-61
2023/10/12 05:49:45;;;;;;;0.40;0.40;;;16.00;99.90;;;;;;4386502;32;20093;-60
2023/10/12 05:52:11;;;;;;;1.62;0.60;;;16.00;99.90;;;;;;4370971;32;20628;-62
2023/10/12 05:54:40;;;;;;;0.93;0.93;;;16.00;99.90;;;;;;4372166;32;20106;-60
2023/10/12 05:57:18;;;;;;;1.08;0.95;;;15.90;99.90;;;;;;4349869;32;20105;-62
2023/10/12 05:59:45;;;;;;;7.75;1.60;;;15.90;99.90;;;;;;4368561;32;20125;-59
2023/10/12 06:02:10;;;;;;;0.40;0.40;;;15.90;99.90;;;;;;4356448;32;20093;-61
2023/10/12 06:04:36;;;;;;;8.18;1.40;;;15.90;99.90;;;;;;4368480;32;20089;-59
2023/10/12 06:07:02;;;;;;;1.20;1.10;;;15.90;99.90;;;;;;4362035;32;20162;-60
2023/10/12 06:09:35;;;;;;;1.10;0.90;;;16.00;99.90;;;;;;4362391;32;21609;-59
2023/10/12 06:12:06;;;;;;;1.00;0.62;;;15.90;99.90;;;;;;4351851;32;20089;-62
2023/10/12 06:14:34;;;;;;;1.90;1.40;;;15.90;99.90;;;;;;4361486;32;20113;-61
2023/10/12 06:17:02;;;;;;;0.98;0.85;;;15.90;99.90;;;;;;4365156;32;20098;-60
2023/10/12 06:19:34;;;;;;;4.15;1.50;;;16.00;99.90;;;;;;4360273;32;21222;-61
2023/10/12 06:22:13;;;;;;;4.57;2.12;;;16.00;99.90;;;;;;4355768;32;20537;-60
2023/10/12 06:24:41;;;;;;;0.40;0.40;;;16.00;99.90;;;;;;4363769;32;20464;-62
2023/10/12 06:27:22;;;;;;;0.90;0.90;;;15.90;99.90;;;;;;4373314;32;21542;-61
2023/10/12 06:29:50;;;;;;;0.88;0.88;;;16.00;99.90;;;;;;4364588;32;20774;-61
2023/10/12 06:32:18;;;;;;;1.65;1.20;;;15.90;99.90;;;;;;4358684;32;21252;-61
2023/10/12 06:34:44;;;;;;;0.98;0.77;;;15.90;99.90;;;;;;4369730;32;20160;-62
2023/10/12 06:38:22;;;;;;;0.50;0.50;;;15.90;99.90;;;;;;4375939;32;20081;-59
2023/10/12 06:41:00;;;;;;;0.52;0.52;;;15.90;99.90;;;;;;4347587;32;20687;-59
2023/10/12 06:42:44;;;;;;;3.17;2.15;;;15.90;99.90;;;;;;4368169;32;20726;-62
2023/10/12 06:45:10;;;;;;;0.60;0.60;;;15.90;99.90;;;;;;4374346;32;20663;-60
2023/10/12 06:47:44;;;;;;;0.85;0.60;;;15.80;99.90;;;;;;4348853;32;20167;-60
2023/10/12 06:50:17;;;;;;;5.82;0.88;;;15.70;99.90;;;;;;4365792;32;20389;-61
2023/10/12 06:52:43;;;;;;;12.20;1.98;;;15.70;99.90;;;;;;4367510;32;20113;-62
2023/10/12 06:55:09;;;;;;;5.10;1.23;;;15.70;99.90;;;;;;4373675;32;20597;-61
2023/10/12 06:57:38;;;;;;;1.27;1.05;;;15.70;99.90;;;;;;4358761;32;20180;-61
2023/10/12 07:02:33;;;;;;;2.42;1.17;;;15.70;99.90;;;;;;4371740;32;20362;-59
2023/10/12 07:05:02;;;;;;;3.55;1.05;;;15.80;99.90;;;;;;4364919;32;20611;-61
2023/10/12 07:07:36;;;;;;;3.80;1.83;;;15.80;99.90;;;;;;4360072;32;20081;-61
2023/10/12 07:12:48;;;;;;;0.73;0.73;;;15.70;99.90;;;;;;4357713;32;20577;-62
2023/10/12 07:15:25;;;;;;;0.50;0.50;;;15.70;99.90;;;;;;4361962;32;20093;-61
2023/10/12 07:17:52;;;;;;;2.00;1.40;;;15.70;99.90;;;;;;4350409;32;20269;-61
2023/10/12 07:23:14;;;;;;;0.37;0.37;;;15.60;99.90;;;;;;4363239;32;20872;-61
2023/10/12 07:25:43;;;;;;;3.03;1.90;;;15.70;99.90;;;;;;4370710;32;20114;-62
2023/10/12 07:28:16;;;;;;;0.73;0.73;;;15.70;99.90;;;;;;4356524;32;20290;-63
2023/10/12 07:30:43;;;;;;;21.67;1.45;;;15.70;99.90;;;;;;4343586;32;20185;-60
2023/10/12 07:33:09;;;;;;;0.50;0.50;;;15.70;99.90;;;;;;4347384;32;20244;-62
2023/10/12 07:35:36;;;;;;;0.70;0.70;;;15.70;99.90;;;;;;4340833;32;20601;-62
2023/10/12 07:38:05;;;;;;;3.05;1.52;;;15.80;99.90;;;;;;4344979;32;20204;-60
2023/10/12 07:40:36;;;;;;;0.60;0.60;;;15.80;99.90;;;;;;4361151;32;20376;-61
2023/10/12 07:43:05;;;;;;;0.88;0.88;;;15.80;99.90;;;;;;4380481;32;21168;-61
2023/10/12 07:45:48;;;;;;;4.57;2.55;;;15.80;99.90;;;;;;4370755;32;20140;-62
2023/10/12 07:48:29;;;;;;;20.73;0.93;;;15.80;99.90;;;;;;4344700;32;20133;-61
2023/10/12 07:50:54;;;;;;;0.68;0.68;;;15.80;99.90;;;;;;4365599;32;20549;-61
2023/10/12 07:53:29;;;;;;;1.05;0.80;;;15.80;99.90;;;;;;4377301;32;20168;-61
2023/10/12 07:56:00;;;;;;;14.95;1.37;;;15.80;99.90;;;;;;4370863;32;20921;-61
2023/10/12 07:58:29;;;;;;;1.67;1.23;;;15.80;99.90;;;;;;4349176;32;20547;-61
2023/10/12 08:01:19;;;;;;;1.25;1.15;;;15.90;99.90;;;;;;4373758;32;20573;-61
2023/10/12 08:03:41;;;;;;;1.98;0.85;;;15.90;99.90;;;;;;4359419;32;20153;-62
2023/10/12 08:06:07;;;;;;;0.50;0.50;;;15.90;99.90;;;;;;4380770;32;20086;-62
2023/10/12 08:08:33;;;;;;;0.47;0.47;;;16.00;99.90;;;;;;4370739;32;20618;-62
2023/10/12 08:11:00;;;;;;;0.40;0.40;;;15.90;99.90;;;;;;4372345;32;20105;-62
2023/10/12 08:13:26;;;;;;;0.40;0.40;;;15.80;99.90;;;;;;4338268;32;20070;-61
2023/10/12 08:15:56;;;;;;;1.35;0.65;;;15.50;99.90;;;;;;4374538;32;20586;-61
2023/10/12 08:21:44;;;;;;;0.22;0.22;;;15.10;99.90;;;;;;4358851;32;20081;-62
2023/10/12 08:26:35;;;;;;;0.60;0.60;;;14.80;99.90;;;;;;4358681;32;20110;-60
2023/10/12 08:29:09;;;;;;;0.60;0.60;;;14.70;99.90;;;;;;4367561;32;20110;-62
2023/10/12 08:31:43;;;;;;;0.30;0.30;;;14.60;99.90;;;;;;4368165;32;20094;-62
2023/10/12 08:39:38;;;;;;;0.62;0.62;;;14.30;99.90;;;;;;4365005;32;20086;-63
2023/10/12 08:44:50;;;;;;;0.30;0.30;;;14.10;99.90;;;;;;4352987;32;20420;-62
2023/10/12 08:50:08;;;;;;;0.98;0.85;;;14.10;99.90;;;;;;4358401;32;20134;-64
2023/10/12 08:52:39;;;;;;;0.52;0.52;;;13.90;99.90;;;;;;4353024;32;20085;-63
2023/10/12 08:55:11;;;;;;;0.37;0.37;;;13.80;99.90;;;;;;4350598;32;20637;-63
2023/10/12 08:58:03;;;;;;;1.42;0.73;;;13.70;99.90;;;;;;4349978;32;20557;-65
2023/10/12 09:03:08;;;;;;;0.52;0.47;;;13.90;99.90;;;;;;4346518;32;20074;-64
2023/10/12 09:05:34;;;;;;;0.30;0.30;;;13.90;99.90;;;;;;4366414;32;21651;-63
2023/10/12 09:10:51;;;;;;;0.20;0.20;;;13.80;99.90;;;;;;4345120;32;20227;-64
2023/10/12 09:13:18;;;;;;;0.68;0.68;;;13.90;99.90;;;;;;4351360;32;20498;-64
2023/10/12 09:15:45;;;;;;;0.20;0.20;;;13.90;99.90;;;;;;4356299;32;20159;-64
2023/10/12 09:18:14;;;;;;;0.65;0.65;;;13.90;99.90;;;;;;4345348;32;20294;-62
2023/10/12 09:20:45;;;;;;;0.45;0.45;;;13.90;99.90;;;;;;4372268;32;20105;-64
2023/10/12 09:23:13;;;;;;;0.20;0.20;;;;;;;;;;4366774;32;20176;-63
2023/10/12 09:26:15;;;;;;;10.98;0.88;;;13.80;99.90;;;;;;4361833;32;20182;-62
2023/10/12 09:28:26;;;;;;;0.40;0.40;;;13.80;99.90;;;;;;4356815;32;20098;-62
2023/10/12 09:30:52;;;;;;;1.27;0.55;;;13.80;99.90;;;;;;4376218;32;20058;-61
2023/10/12 09:35:25;;;;;;;0.70;0.70;;;13.90;99.90;;;;;;4364596;32;20659;-61
2023/10/12 09:36:03;;;;;;;0.52;0.52;;;14.00;99.90;;;;;;4350296;32;20099;-62
2023/10/12 09:38:30;;;;;;;0.98;0.95;;;14.00;99.90;;;;;;4361823;32;20074;-62
2023/10/12 09:40:59;;;;;;;0.30;0.30;;;14.00;99.90;;;;;;4373832;32;20358;-63
2023/10/12 09:43:30;;;;;;;7.25;1.52;;;14.10;99.90;;;;;;4375551;32;20574;-62
2023/10/12 09:46:05;;;;;;;0.40;0.40;;;14.10;99.90;;;;;;4374588;32;20117;-62
2023/10/12 09:48:38;;;;;;;1.55;0.50;;;14.10;99.90;;;;;;4375587;32;20093;-61
2023/10/12 09:51:10;;;;;;;1.30;0.75;;;14.20;99.90;;;;;;4364697;32;20074;-61
2023/10/12 09:53:44;;;;;;;1.48;1.35;;;14.20;99.90;;;;;;4362225;32;20141;-61
2023/10/12 09:56:11;;;;;;;0.40;0.40;;;14.30;99.90;;;;;;4357432;32;20340;-61
2023/10/12 09:58:51;;;;;;;0.25;0.25;;;14.50;99.90;;;;;;4370746;32;20571;-62
2023/10/12 10:01:22;;;;;;;0.50;0.50;;;14.40;99.90;;;;;;4368386;32;20146;-62
2023/10/12 10:03:48;;;;;;;1.45;1.00;;;14.30;99.90;;;;;;4356380;32;20160;-62
2023/10/12 10:06:28;;;;;;;5.87;0.90;;;14.30;99.90;;;;;;4367163;32;20133;-61
2023/10/12 10:09:16;;;;;;;13.50;2.00;;;14.30;99.90;;;;;;4379738;32;21005;-62
2023/10/12 10:11:41;;;;;;;2.12;1.05;;;14.40;99.90;;;;;;4352271;32;20796;-63
2023/10/12 10:14:13;;;;;;;0.47;0.47;;;14.50;99.90;;;;;;4378263;32;20074;-61
2023/10/12 10:16:46;;;;;;;0.55;0.55;;;14.60;99.90;;;;;;4362702;32;20791;-60
2023/10/12 10:19:13;;;;;;;0.30;0.30;;;14.60;99.90;;;;;;4374995;32;20486;-63
2023/10/12 10:22:14;;;;;;;0.50;0.50;;;14.60;99.90;;;;;;4378692;32;20788;-62
2023/10/12 10:24:44;;;;;;;2.87;1.15;;;14.80;99.90;;;;;;4366502;32;20697;-61
2023/10/12 10:27:11;;;;;;;0.40;0.40;;;14.80;99.90;;;;;;4352199;32;20077;-62
2023/10/12 10:29:45;;;;;;;2.15;0.80;;;14.60;99.90;;;;;;4352574;32;20102;-62
2023/10/12 10:32:14;;;;;;;0.82;0.82;;;14.70;99.90;;;;;;4369932;32;20152;-62
2023/10/12 10:34:41;;;;;;;0.88;0.88;;;14.70;99.90;;;;;;4373652;32;20609;-61
2023/10/12 10:37:07;;;;;;;0.30;0.30;;;14.70;99.90;;;;;;4368666;32;20070;-61
2023/10/12 10:39:32;;;;;;;4.75;1.20;;;14.80;99.90;;;;;;4376125;32;20086;-62
2023/10/12 10:42:01;;;;;;;7.43;1.20;;;14.80;99.90;;;;;;4385482;32;20119;-63
2023/10/12 10:44:29;;;;;;;0.30;0.30;;;14.60;99.90;;;;;;4384839;32;21567;-63
2023/10/12 10:46:58;;;;;;;0.98;0.62;;;14.60;99.90;;;;;;4376074;32;20085;-62
2023/10/12 10:49:30;;;;;;;0.50;0.50;;;14.60;99.90;;;;;;4385550;32;20141;-62
2023/10/12 10:52:02;;;;;;;5.87;0.70;;;14.60;99.90;;;;;;4367630;32;20835;-64
2023/10/12 10:54:29;;;;;;;0.40;0.40;;;14.60;99.90;;;;;;4350566;32;20265;-64
2023/10/12 10:56:58;;;;;;;0.65;0.65;;;14.60;99.90;;;;;;4376236;32;20062;-63
2023/10/12 10:59:24;;;;;;;0.70;0.40;;;14.60;99.90;;;;;;4374929;32;20637;-62
2023/10/12 11:01:50;;;;;;;0.47;0.47;;;14.50;99.90;;;;;;4379558;32;20062;-63
2023/10/12 11:04:41;;;;;;;0.30;0.30;;;14.50;99.90;;;;;;4381968;32;20322;-62
2023/10/12 11:07:12;;;;;;;2.83;1.00;;;14.60;99.90;;;;;;4359953;32;20094;-62
2023/10/12 11:10:05;;;;;;;0.65;0.45;;;14.60;99.90;;;;;;4370060;32;20073;-63
2023/10/12 11:12:31;;;;;;;0.95;0.90;;;14.70;99.90;;;;;;4359654;32;20089;-61
2023/10/12 11:15:00;;;;;;;0.40;0.40;;;14.80;99.90;;;;;;4378056;32;20133;-62
2023/10/12 11:17:30;;;;;;;0.52;0.52;;;14.80;99.90;;;;;;4374119;32;20187;-62
2023/10/12 11:19:57;;;;;;;13.25;0.82;;;14.80;99.90;;;;;;4365564;32;20126;-63
2023/10/12 11:22:23;;;;;;;1.65;0.70;;;14.90;99.90;;;;;;4367855;32;20078;-61
2023/10/12 11:24:49;;;;;;;4.05;0.80;;;14.90;99.90;;;;;;4355416;32;20097;-61
2023/10/12 11:27:32;;;;;;;0.22;0.22;;;14.90;99.90;;;;;;4378148;32;21377;-61
2023/10/12 11:30:00;;;;;;;1.55;0.47;;;15.00;99.90;;;;;;4361951;32;20089;-61
2023/10/12 11:32:28;;;;;;;0.30;0.30;;;15.00;99.90;;;;;;4359546;32;20097;-62
2023/10/12 11:34:57;;;;;;;1.60;0.75;;;15.00;99.90;;;;;;4380558;32;20861;-60
2023/10/12 11:37:26;;;;;;;0.45;0.45;;;15.10;99.90;;;;;;4382124;32;20105;-61
2023/10/12 11:39:52;;;;;;;0.30;0.30;;;15.10;99.90;;;;;;4382677;32;21475;-62
2023/10/12 11:42:17;;;;;;;0.30;0.30;;;15.10;99.90;;;;;;4377378;32;20767;-62
2023/10/12 11:44:47;;;;;;;0.40;0.40;;;15.20;99.90;;;;;;4379502;32;20378;-62
2023/10/12 11:47:24;;;;;;;0.20;0.20;;;15.20;99.90;;;;;;4376395;32;20678;-62
2023/10/12 11:49:55;;;;;;;0.40;0.40;;;15.30;99.90;;;;;;4379086;32;87471;-61
2023/10/12 11:52:30;;;;;;;0.35;0.35;;;15.40;99.90;;;;;;4380263;32;20065;-61
2023/10/12 11:55:19;;;;;;;0.43;0.43;;;15.40;99.90;;;;;;4398633;32;20085;-62
2023/10/12 11:57:48;;;;;;;0.95;0.77;;;15.50;99.90;;;;;;4372014;32;20057;-61
2023/10/12 12:00:26;;;;;;;0.95;0.80;;;15.50;99.90;;;;;;4372671;32;20118;-62
2023/10/12 12:02:57;;;;;;;0.30;0.30;;;15.40;99.90;;;;;;4390998;32;20110;-62
2023/10/12 12:05:23;;;;;;;;;;;15.50;99.90;;;;;;4366396;32;20474;-61
2023/10/12 12:07:51;;;;;;;0.30;0.30;;;15.60;99.90;;;;;;4388601;32;19977;-64
2023/10/12 12:10:26;;;;;;;0.73;0.73;;;15.60;99.90;;;;;;4391328;32;20074;-60
2023/10/12 12:12:52;;;;;;;0.50;0.50;;;15.70;99.90;;;;;;4374780;32;20689;-60
2023/10/12 12:15:18;;;;;;;0.40;0.40;;;15.80;99.90;;;;;;4383122;32;20098;-60
2023/10/12 12:17:46;;;;;;;1.02;0.93;;;15.80;99.90;;;;;;4398145;32;20197;-61
2023/10/12 12:20:21;;;;;;;13.65;2.37;;;15.70;99.90;;;;;;4394237;32;20207;-60
2023/10/12 12:22:46;;;;;;;0.30;0.30;;;15.70;99.90;;;;;;4383654;32;20144;-60
2023/10/12 12:26:08;;;;;;;6.40;0.77;;;15.70;99.90;;;;;;4394746;32;20952;-57
2023/10/12 12:28:43;;;;;;;0.30;0.30;;;15.80;99.90;;;;;;4378642;32;20114;-63
2023/10/12 12:37:43;;;;;;;0.30;0.30;;;16.10;99.90;;;;;;4373084;32;20099;-64
2023/10/12 12:38:05;;;;;;;0.55;0.55;;;16.00;99.90;;;;;;4364125;32;20082;-62
2023/10/12 12:40:32;;;;;;;0.47;0.47;;;16.00;99.90;;;;;;4404647;32;20098;-62
2023/10/12 12:42:59;;;;;;;0.30;0.30;;;16.10;99.90;;;;;;4395701;32;20089;-62
2023/10/12 12:45:25;;;;;;;0.40;0.40;;;16.10;99.90;;;;;;4407200;32;20107;-62
2023/10/12 12:47:50;;;;;;;0.30;0.30;;;16.30;99.90;;;;;;4407036;32;20081;-61
2023/10/12 12:50:16;;;;;;;1.48;0.88;;;16.50;99.90;;;;;;4397119;32;20565;-63
2023/10/12 12:52:41;;;;;;;1.37;1.27;;;16.70;99.90;;;;;;4393326;32;20102;-62
2023/10/12 12:55:10;;;;;;;0.50;0.50;;;16.80;99.90;;;;;;4398286;32;20101;-61
2023/10/12 12:57:38;;;;;;;0.30;0.30;;;16.80;99.90;;;;;;4396039;32;20061;-61
2023/10/12 13:00:08;;;;;;;0.30;0.30;;;17.00;99.90;;;;;;4389739;32;20099;-60
2023/10/12 13:02:33;;;;;;;0.50;0.50;;;16.90;99.90;;;;;;4415090;32;20073;-59
2023/10/12 13:05:00;;;;;;;0.37;0.37;;;17.00;99.90;;;;;;4417205;32;20131;-61
2023/10/12 13:07:26;;;;;;;2.05;1.00;;;17.00;99.90;;;;;;4418719;32;20272;-61
2023/10/12 13:09:53;;;;;;;1.30;0.93;;;16.80;99.90;;;;;;4416112;32;20143;-62
2023/10/12 13:12:19;;;;;;;0.30;0.30;;;16.60;99.90;;;;;;4412074;32;20093;-61
2023/10/12 13:14:44;;;;;;;0.68;0.68;;;16.50;99.90;;;;;;4400043;32;20073;-62
2023/10/12 13:17:12;;;;;;;0.40;0.40;;;16.50;99.90;;;;;;4408175;32;20081;-62
2023/10/12 13:19:37;;;;;;;1.55;0.98;;;16.30;99.90;;;;;;4413879;32;20066;-62
2023/10/12 13:22:03;;;;;;;0.30;0.30;;;16.30;99.90;;;;;;4393078;32;20209;-61
2023/10/12 13:24:35;;;;;;;0.52;0.52;;;16.30;99.90;;;;;;4405685;32;20855;-63
2023/10/12 13:27:05;;;;;;;0.70;0.55;;;16.30;99.90;;;;;;4400773;32;20102;-60
2023/10/12 13:29:30;;;;;;;0.40;0.40;;;16.30;99.90;;;;;;4405515;32;20086;-62
2023/10/12 13:31:56;;;;;;;1.98;0.62;;;16.30;99.90;;;;;;4401415;32;20123;-62
2023/10/12 13:34:23;;;;;;;0.30;0.30;;;16.30;99.90;;;;;;4409607;32;20102;-62
2023/10/12 13:36:49;;;;;;;0.30;0.30;;;16.20;99.90;;;;;;4409195;32;20871;-62
2023/10/12 13:39:14;;;;;;;0.30;0.30;;;16.20;99.90;;;;;;4410836;32;20090;-63
2023/10/12 13:41:40;;;;;;;0.30;0.30;;;16.20;99.90;;;;;;4410832;32;20066;-60
2023/10/12 13:44:05;;;;;;;0.93;0.60;;;16.20;99.90;;;;;;4410429;32;20093;-61
2023/10/12 13:46:32;;;;;;;5.18;0.60;;;16.10;99.90;;;;;;4398329;32;20101;-62
2023/10/12 13:48:57;;;;;;;0.40;0.40;;;15.90;99.90;;;;;;4409489;32;20074;-62
2023/10/12 13:51:31;;;;;;;0.32;0.32;;;15.80;99.90;;;;;;4410455;32;20089;-61
2023/10/12 13:53:57;;;;;;;0.30;0.30;;;15.70;99.90;;;;;;4394278;32;20125;-61
2023/10/12 13:56:24;;;;;;;0.30;0.30;;;15.80;99.90;;;;;;4411994;32;20114;-62
2023/10/12 13:58:52;;;;;;;0.50;0.50;;;16.00;99.90;;;;;;4410215;32;20062;-61
2023/10/12 14:01:21;;;;;;;0.93;0.93;;;16.00;99.90;;;;;;4395967;32;20111;-60
2023/10/12 14:03:55;;;;;;;2.75;0.60;;;16.00;99.90;;;;;;4400370;32;20526;-61
2023/10/12 14:06:21;;;;;;;0.30;0.30;;;15.90;99.90;;;;;;4406500;32;20101;-62
2023/10/12 14:08:47;;;;;;;0.65;0.50;;;15.90;99.90;;;;;;4392502;32;20814;-62
2023/10/12 14:11:14;;;;;;;0.40;0.40;;;15.80;99.90;;;;;;4408710;32;20109;-60
2023/10/12 14:13:39;;;;;;;0.62;0.60;;;15.90;99.90;;;;;;4409559;32;20166;-62
2023/10/12 14:16:08;;;;;;;0.40;0.40;;;15.90;99.90;;;;;;4395598;32;20077;-62
2023/10/12 14:18:33;;;;;;;0.70;0.55;;;15.90;99.90;;;;;;4393561;32;20552;-61
2023/10/12 14:20:59;;;;;;;0.50;0.50;;;16.00;99.90;;;;;;4408848;32;20148;-62
2023/10/12 14:23:29;;;;;;;0.75;0.68;;;16.10;99.90;;;;;;4409502;32;20149;-62
2023/10/12 14:25:57;;;;;;;0.40;0.40;;;16.10;99.90;;;;;;4398652;32;20081;-62
2023/10/12 14:28:23;;;;;;;0.50;0.50;;;16.20;99.90;;;;;;4387178;32;20101;-61
2023/10/12 14:30:50;;;;;;;0.50;0.50;;;16.00;99.90;;;;;;4398901;32;20094;-61
2023/10/12 14:33:19;;;;;;;1.05;0.68;;;16.10;99.90;;;;;;4363567;32;20074;-63